sensor_id;sensor_type;location;lat;lon;timestamp;P1;durP1;ratioP1;P2;durP2;ratioP2
65009;SDS011;51556;50.002;22.014;2023-06-14T00:01:43;7.20;;;4.10;;
65009;SDS011;51556;50.002;22.014;2023-06-14T00:04:10;12.00;;;4.30;;
65009;SDS011;51556;50.002;22.014;2023-06-14T00:06:36;5.10;;;4.00;;
65009;SDS011;51556;50.002;22.014;2023-06-14T00:09:03;7.10;;;3.80;;
65009;SDS011;51556;50.002;22.014;2023-06-14T00:11:30;6.40;;;4.20;;
65009;SDS011;51556;50.002;22.014;2023-06-14T00:13:57;7.60;;;4.20;;
65009;SDS011;51556;50.002;22.014;2023-06-14T00:16:23;5.80;;;4.40;;
65009;SDS011;51556;50.002;22.014;2023-06-14T00:18:49;6.40;;;4.50;;
65009;SDS011;51556;50.002;22.014;2023-06-14T00:21:17;5.40;;;3.40;;
65009;SDS011;51556;50.002;22.014;2023-06-14T00:23:43;4.40;;;3.70;;
65009;SDS011;51556;50.002;22.014;2023-06-14T00:26:08;8.10;;;3.80;;
65009;SDS011;51556;50.002;22.014;2023-06-14T00:28:34;7.00;;;4.20;;
65009;SDS011;51556;50.002;22.014;2023-06-14T00:30:59;5.80;;;3.70;;
65009;SDS011;51556;50.002;22.014;2023-06-14T00:33:25;4.70;;;3.70;;
65009;SDS011;51556;50.002;22.014;2023-06-14T00:35:50;4.60;;;3.20;;
65009;SDS011;51556;50.002;22.014;2023-06-14T00:38:18;11.50;;;4.20;;
65009;SDS011;51556;50.002;22.014;2023-06-14T00:40:44;6.10;;;3.30;;
65009;SDS011;51556;50.002;22.014;2023-06-14T00:43:10;7.80;;;4.20;;
65009;SDS011;51556;50.002;22.014;2023-06-14T00:45:35;6.80;;;4.20;;
65009;SDS011;51556;50.002;22.014;2023-06-14T00:48:01;8.30;;;4.30;;
65009;SDS011;51556;50.002;22.014;2023-06-14T00:50:28;6.60;;;3.60;;
65009;SDS011;51556;50.002;22.014;2023-06-14T00:52:57;6.60;;;3.70;;
65009;SDS011;51556;50.002;22.014;2023-06-14T00:55:22;5.50;;;3.80;;
65009;SDS011;51556;50.002;22.014;2023-06-14T00:57:57;11.40;;;4.00;;
65009;SDS011;51556;50.002;22.014;2023-06-14T01:00:24;9.70;;;4.30;;
65009;SDS011;51556;50.002;22.014;2023-06-14T01:02:49;6.90;;;3.40;;
65009;SDS011;51556;50.002;22.014;2023-06-14T01:05:15;7.00;;;3.90;;
65009;SDS011;51556;50.002;22.014;2023-06-14T01:15:44;8.80;;;3.70;;
65009;SDS011;51556;50.002;22.014;2023-06-14T01:18:10;6.40;;;3.70;;
65009;SDS011;51556;50.002;22.014;2023-06-14T01:20:42;6.10;;;3.60;;
65009;SDS011;51556;50.002;22.014;2023-06-14T01:23:10;9.50;;;4.50;;
65009;SDS011;51556;50.002;22.014;2023-06-14T01:25:37;7.10;;;3.70;;
65009;SDS011;51556;50.002;22.014;2023-06-14T01:28:04;5.90;;;3.60;;
65009;SDS011;51556;50.002;22.014;2023-06-14T01:30:36;9.10;;;3.90;;
65009;SDS011;51556;50.002;22.014;2023-06-14T01:33:03;9.20;;;4.10;;
65009;SDS011;51556;50.002;22.014;2023-06-14T01:35:29;9.30;;;4.00;;
65009;SDS011;51556;50.002;22.014;2023-06-14T01:37:55;6.60;;;3.60;;
65009;SDS011;51556;50.002;22.014;2023-06-14T01:40:22;5.50;;;3.20;;
65009;SDS011;51556;50.002;22.014;2023-06-14T01:42:49;6.50;;;4.10;;
65009;SDS011;51556;50.002;22.014;2023-06-14T01:45:16;7.00;;;4.50;;
65009;SDS011;51556;50.002;22.014;2023-06-14T01:47:43;8.80;;;4.00;;
65009;SDS011;51556;50.002;22.014;2023-06-14T01:50:10;9.30;;;3.70;;
65009;SDS011;51556;50.002;22.014;2023-06-14T01:52:36;7.70;;;4.10;;
65009;SDS011;51556;50.002;22.014;2023-06-14T01:55:03;8.00;;;3.60;;
65009;SDS011;51556;50.002;22.014;2023-06-14T01:57:29;8.70;;;4.50;;
65009;SDS011;51556;50.002;22.014;2023-06-14T01:59:55;7.30;;;4.20;;
65009;SDS011;51556;50.002;22.014;2023-06-14T02:02:20;6.60;;;3.80;;
65009;SDS011;51556;50.002;22.014;2023-06-14T02:04:46;7.40;;;3.90;;
65009;SDS011;51556;50.002;22.014;2023-06-14T02:07:12;4.60;;;2.80;;
65009;SDS011;51556;50.002;22.014;2023-06-14T02:09:39;10.50;;;3.90;;
65009;SDS011;51556;50.002;22.014;2023-06-14T02:12:06;10.00;;;5.60;;
65009;SDS011;51556;50.002;22.014;2023-06-14T02:14:31;10.30;;;5.40;;
65009;SDS011;51556;50.002;22.014;2023-06-14T02:16:57;5.90;;;3.60;;
65009;SDS011;51556;50.002;22.014;2023-06-14T02:19:23;5.40;;;4.20;;
65009;SDS011;51556;50.002;22.014;2023-06-14T02:21:49;6.80;;;3.50;;
65009;SDS011;51556;50.002;22.014;2023-06-14T02:24:15;10.30;;;3.80;;
65009;SDS011;51556;50.002;22.014;2023-06-14T02:26:41;6.20;;;3.80;;
65009;SDS011;51556;50.002;22.014;2023-06-14T02:29:07;9.50;;;4.00;;
65009;SDS011;51556;50.002;22.014;2023-06-14T02:31:37;5.50;;;3.70;;
65009;SDS011;51556;50.002;22.014;2023-06-14T02:34:03;4.90;;;3.80;;
65009;SDS011;51556;50.002;22.014;2023-06-14T02:36:29;6.90;;;4.10;;
65009;SDS011;51556;50.002;22.014;2023-06-14T02:38:55;7.50;;;4.10;;
65009;SDS011;51556;50.002;22.014;2023-06-14T02:41:25;5.40;;;3.90;;
65009;SDS011;51556;50.002;22.014;2023-06-14T02:43:52;6.30;;;4.00;;
65009;SDS011;51556;50.002;22.014;2023-06-14T02:46:18;10.40;;;4.10;;
65009;SDS011;51556;50.002;22.014;2023-06-14T02:48:44;7.20;;;4.60;;
65009;SDS011;51556;50.002;22.014;2023-06-14T02:51:10;8.40;;;4.40;;
65009;SDS011;51556;50.002;22.014;2023-06-14T02:53:36;7.70;;;4.40;;
65009;SDS011;51556;50.002;22.014;2023-06-14T02:56:02;10.10;;;4.50;;
65009;SDS011;51556;50.002;22.014;2023-06-14T02:58:29;8.10;;;4.40;;
65009;SDS011;51556;50.002;22.014;2023-06-14T03:00:55;8.40;;;4.20;;
65009;SDS011;51556;50.002;22.014;2023-06-14T03:03:21;8.80;;;3.80;;
65009;SDS011;51556;50.002;22.014;2023-06-14T03:05:49;6.30;;;4.50;;
65009;SDS011;51556;50.002;22.014;2023-06-14T03:08:16;4.90;;;3.80;;
65009;SDS011;51556;50.002;22.014;2023-06-14T03:10:45;6.40;;;4.20;;
65009;SDS011;51556;50.002;22.014;2023-06-14T03:13:11;7.40;;;4.60;;
65009;SDS011;51556;50.002;22.014;2023-06-14T03:15:43;8.10;;;4.40;;
65009;SDS011;51556;50.002;22.014;2023-06-14T03:18:10;5.30;;;4.30;;
65009;SDS011;51556;50.002;22.014;2023-06-14T03:20:37;8.30;;;4.30;;
65009;SDS011;51556;50.002;22.014;2023-06-14T03:23:03;6.10;;;3.90;;
65009;SDS011;51556;50.002;22.014;2023-06-14T03:25:30;6.10;;;3.80;;
65009;SDS011;51556;50.002;22.014;2023-06-14T03:27:58;6.50;;;4.40;;
65009;SDS011;51556;50.002;22.014;2023-06-14T03:30:23;5.50;;;4.20;;
65009;SDS011;51556;50.002;22.014;2023-06-14T03:32:49;11.00;;;4.20;;
65009;SDS011;51556;50.002;22.014;2023-06-14T03:35:17;5.30;;;3.60;;
65009;SDS011;51556;50.002;22.014;2023-06-14T03:37:43;6.60;;;3.90;;
65009;SDS011;51556;50.002;22.014;2023-06-14T03:40:09;7.00;;;4.40;;
65009;SDS011;51556;50.002;22.014;2023-06-14T03:42:36;6.20;;;4.20;;
65009;SDS011;51556;50.002;22.014;2023-06-14T03:45:01;8.90;;;4.10;;
65009;SDS011;51556;50.002;22.014;2023-06-14T03:47:27;9.50;;;4.60;;
65009;SDS011;51556;50.002;22.014;2023-06-14T03:49:52;6.40;;;4.30;;
65009;SDS011;51556;50.002;22.014;2023-06-14T03:52:18;7.30;;;3.80;;
65009;SDS011;51556;50.002;22.014;2023-06-14T03:54:43;4.90;;;3.80;;
65009;SDS011;51556;50.002;22.014;2023-06-14T03:57:09;5.50;;;3.80;;
65009;SDS011;51556;50.002;22.014;2023-06-14T03:59:35;9.90;;;4.60;;
65009;SDS011;51556;50.002;22.014;2023-06-14T04:02:01;6.70;;;4.00;;
65009;SDS011;51556;50.002;22.014;2023-06-14T04:04:27;7.20;;;5.20;;
65009;SDS011;51556;50.002;22.014;2023-06-14T04:06:54;8.40;;;4.70;;
65009;SDS011;51556;50.002;22.014;2023-06-14T04:09:22;7.30;;;4.30;;
65009;SDS011;51556;50.002;22.014;2023-06-14T04:11:50;8.30;;;4.80;;
65009;SDS011;51556;50.002;22.014;2023-06-14T04:14:17;8.10;;;5.50;;
65009;SDS011;51556;50.002;22.014;2023-06-14T04:16:44;8.90;;;4.70;;
65009;SDS011;51556;50.002;22.014;2023-06-14T04:19:10;8.60;;;5.00;;
65009;SDS011;51556;50.002;22.014;2023-06-14T04:21:35;5.50;;;4.30;;
65009;SDS011;51556;50.002;22.014;2023-06-14T04:24:01;10.80;;;5.70;;
65009;SDS011;51556;50.002;22.014;2023-06-14T04:26:27;8.90;;;5.90;;
65009;SDS011;51556;50.002;22.014;2023-06-14T04:28:55;8.10;;;4.70;;
65009;SDS011;51556;50.002;22.014;2023-06-14T04:31:22;10.70;;;7.40;;
65009;SDS011;51556;50.002;22.014;2023-06-14T04:33:53;7.40;;;5.80;;
65009;SDS011;51556;50.002;22.014;2023-06-14T04:36:19;12.30;;;7.20;;
65009;SDS011;51556;50.002;22.014;2023-06-14T04:38:45;14.50;;;7.60;;
65009;SDS011;51556;50.002;22.014;2023-06-14T04:41:11;10.20;;;7.60;;
65009;SDS011;51556;50.002;22.014;2023-06-14T04:43:37;7.80;;;5.90;;
65009;SDS011;51556;50.002;22.014;2023-06-14T04:46:06;9.80;;;6.20;;
65009;SDS011;51556;50.002;22.014;2023-06-14T04:48:36;14.30;;;7.40;;
65009;SDS011;51556;50.002;22.014;2023-06-14T04:51:05;6.60;;;5.00;;
65009;SDS011;51556;50.002;22.014;2023-06-14T04:53:34;10.80;;;6.20;;
65009;SDS011;51556;50.002;22.014;2023-06-14T04:56:00;12.00;;;7.00;;
65009;SDS011;51556;50.002;22.014;2023-06-14T04:58:29;11.20;;;6.30;;
65009;SDS011;51556;50.002;22.014;2023-06-14T05:00:55;9.00;;;6.80;;
65009;SDS011;51556;50.002;22.014;2023-06-14T05:03:21;11.10;;;7.50;;
65009;SDS011;51556;50.002;22.014;2023-06-14T05:05:49;11.80;;;7.70;;
65009;SDS011;51556;50.002;22.014;2023-06-14T05:08:15;14.60;;;7.60;;
65009;SDS011;51556;50.002;22.014;2023-06-14T05:10:41;12.90;;;8.20;;
65009;SDS011;51556;50.002;22.014;2023-06-14T05:13:06;11.50;;;7.60;;
65009;SDS011;51556;50.002;22.014;2023-06-14T05:15:31;10.60;;;7.70;;
65009;SDS011;51556;50.002;22.014;2023-06-14T05:17:57;9.40;;;7.30;;
65009;SDS011;51556;50.002;22.014;2023-06-14T05:20:23;11.00;;;7.20;;
65009;SDS011;51556;50.002;22.014;2023-06-14T05:22:50;12.10;;;6.90;;
65009;SDS011;51556;50.002;22.014;2023-06-14T05:25:19;9.30;;;7.10;;
65009;SDS011;51556;50.002;22.014;2023-06-14T05:27:46;9.80;;;6.80;;
65009;SDS011;51556;50.002;22.014;2023-06-14T05:30:12;10.30;;;7.10;;
65009;SDS011;51556;50.002;22.014;2023-06-14T05:32:38;10.90;;;7.30;;
65009;SDS011;51556;50.002;22.014;2023-06-14T05:35:03;11.00;;;7.90;;
65009;SDS011;51556;50.002;22.014;2023-06-14T05:37:32;13.00;;;8.80;;
65009;SDS011;51556;50.002;22.014;2023-06-14T05:39:58;13.50;;;8.40;;
65009;SDS011;51556;50.002;22.014;2023-06-14T05:42:23;12.00;;;8.20;;
65009;SDS011;51556;50.002;22.014;2023-06-14T05:44:48;15.80;;;9.00;;
65009;SDS011;51556;50.002;22.014;2023-06-14T05:47:14;10.50;;;7.50;;
65009;SDS011;51556;50.002;22.014;2023-06-14T05:49:39;11.20;;;7.70;;
65009;SDS011;51556;50.002;22.014;2023-06-14T05:52:05;10.80;;;7.40;;
65009;SDS011;51556;50.002;22.014;2023-06-14T05:54:31;13.80;;;7.20;;
65009;SDS011;51556;50.002;22.014;2023-06-14T05:56:57;14.70;;;7.40;;
65009;SDS011;51556;50.002;22.014;2023-06-14T05:59:26;11.80;;;7.40;;
65009;SDS011;51556;50.002;22.014;2023-06-14T06:01:52;13.30;;;7.50;;
65009;SDS011;51556;50.002;22.014;2023-06-14T06:04:18;10.20;;;6.70;;
65009;SDS011;51556;50.002;22.014;2023-06-14T06:06:43;11.70;;;7.60;;
65009;SDS011;51556;50.002;22.014;2023-06-14T06:09:10;12.10;;;7.60;;
65009;SDS011;51556;50.002;22.014;2023-06-14T06:11:35;10.90;;;7.30;;
65009;SDS011;51556;50.002;22.014;2023-06-14T06:14:01;7.80;;;6.20;;
65009;SDS011;51556;50.002;22.014;2023-06-14T06:16:26;14.20;;;7.60;;
65009;SDS011;51556;50.002;22.014;2023-06-14T06:18:52;10.70;;;7.90;;
65009;SDS011;51556;50.002;22.014;2023-06-14T06:21:17;11.90;;;7.30;;
65009;SDS011;51556;50.002;22.014;2023-06-14T06:23:43;13.20;;;7.50;;
65009;SDS011;51556;50.002;22.014;2023-06-14T06:26:08;12.50;;;7.60;;
65009;SDS011;51556;50.002;22.014;2023-06-14T06:28:34;10.40;;;7.40;;
65009;SDS011;51556;50.002;22.014;2023-06-14T06:30:59;13.40;;;7.80;;
65009;SDS011;51556;50.002;22.014;2023-06-14T06:33:25;10.00;;;7.60;;
65009;SDS011;51556;50.002;22.014;2023-06-14T06:35:50;11.10;;;7.70;;
65009;SDS011;51556;50.002;22.014;2023-06-14T06:38:16;12.70;;;8.80;;
65009;SDS011;51556;50.002;22.014;2023-06-14T06:40:43;12.80;;;8.90;;
65009;SDS011;51556;50.002;22.014;2023-06-14T06:43:09;13.30;;;8.00;;
65009;SDS011;51556;50.002;22.014;2023-06-14T06:45:34;13.50;;;8.80;;
65009;SDS011;51556;50.002;22.014;2023-06-14T06:47:59;9.30;;;6.90;;
65009;SDS011;51556;50.002;22.014;2023-06-14T06:50:25;13.30;;;8.00;;
65009;SDS011;51556;50.002;22.014;2023-06-14T06:52:51;13.00;;;7.80;;
65009;SDS011;51556;50.002;22.014;2023-06-14T06:55:16;10.90;;;7.60;;
65009;SDS011;51556;50.002;22.014;2023-06-14T06:57:43;12.40;;;7.80;;
65009;SDS011;51556;50.002;22.014;2023-06-14T07:00:09;13.20;;;6.70;;
65009;SDS011;51556;50.002;22.014;2023-06-14T07:02:35;11.80;;;7.20;;
65009;SDS011;51556;50.002;22.014;2023-06-14T07:05:02;12.60;;;9.00;;
65009;SDS011;51556;50.002;22.014;2023-06-14T07:07:27;12.80;;;8.30;;
65009;SDS011;51556;50.002;22.014;2023-06-14T07:09:53;11.80;;;7.50;;
65009;SDS011;51556;50.002;22.014;2023-06-14T07:12:18;11.60;;;7.30;;
65009;SDS011;51556;50.002;22.014;2023-06-14T07:14:43;17.20;;;8.00;;
65009;SDS011;51556;50.002;22.014;2023-06-14T07:17:09;14.30;;;8.00;;
65009;SDS011;51556;50.002;22.014;2023-06-14T07:19:35;10.60;;;7.50;;
65009;SDS011;51556;50.002;22.014;2023-06-14T07:22:01;14.60;;;7.50;;
65009;SDS011;51556;50.002;22.014;2023-06-14T07:24:26;12.40;;;8.30;;
65009;SDS011;51556;50.002;22.014;2023-06-14T07:26:53;10.30;;;7.40;;
65009;SDS011;51556;50.002;22.014;2023-06-14T07:29:19;12.20;;;7.60;;
65009;SDS011;51556;50.002;22.014;2023-06-14T07:31:46;11.30;;;7.30;;
65009;SDS011;51556;50.002;22.014;2023-06-14T07:34:11;9.70;;;7.70;;
65009;SDS011;51556;50.002;22.014;2023-06-14T07:36:37;11.00;;;6.70;;
65009;SDS011;51556;50.002;22.014;2023-06-14T07:39:03;8.70;;;6.90;;
65009;SDS011;51556;50.002;22.014;2023-06-14T07:41:31;9.00;;;6.50;;
65009;SDS011;51556;50.002;22.014;2023-06-14T07:43:57;10.60;;;5.70;;
65009;SDS011;51556;50.002;22.014;2023-06-14T07:46:22;7.40;;;5.90;;
65009;SDS011;51556;50.002;22.014;2023-06-14T07:48:47;11.00;;;6.60;;
65009;SDS011;51556;50.002;22.014;2023-06-14T07:51:13;6.60;;;5.30;;
65009;SDS011;51556;50.002;22.014;2023-06-14T07:53:38;8.80;;;5.80;;
65009;SDS011;51556;50.002;22.014;2023-06-14T07:56:06;7.20;;;5.40;;
65009;SDS011;51556;50.002;22.014;2023-06-14T07:58:31;7.80;;;5.40;;
65009;SDS011;51556;50.002;22.014;2023-06-14T08:00:56;7.00;;;4.90;;
65009;SDS011;51556;50.002;22.014;2023-06-14T08:03:22;6.40;;;4.70;;
65009;SDS011;51556;50.002;22.014;2023-06-14T08:05:48;10.10;;;5.80;;
65009;SDS011;51556;50.002;22.014;2023-06-14T08:08:13;7.60;;;5.50;;
65009;SDS011;51556;50.002;22.014;2023-06-14T08:10:39;6.50;;;4.90;;
65009;SDS011;51556;50.002;22.014;2023-06-14T08:13:04;12.60;;;5.90;;
65009;SDS011;51556;50.002;22.014;2023-06-14T08:15:29;6.20;;;5.10;;
65009;SDS011;51556;50.002;22.014;2023-06-14T08:17:55;7.80;;;5.10;;
65009;SDS011;51556;50.002;22.014;2023-06-14T08:20:21;8.80;;;5.80;;
65009;SDS011;51556;50.002;22.014;2023-06-14T08:22:46;8.50;;;5.70;;
65009;SDS011;51556;50.002;22.014;2023-06-14T08:25:13;7.10;;;4.50;;
65009;SDS011;51556;50.002;22.014;2023-06-14T08:27:38;7.10;;;5.00;;
65009;SDS011;51556;50.002;22.014;2023-06-14T08:30:05;10.50;;;6.30;;
65009;SDS011;51556;50.002;22.014;2023-06-14T08:32:32;7.10;;;4.80;;
65009;SDS011;51556;50.002;22.014;2023-06-14T08:34:58;13.50;;;4.80;;
65009;SDS011;51556;50.002;22.014;2023-06-14T08:37:23;7.50;;;5.10;;
65009;SDS011;51556;50.002;22.014;2023-06-14T08:39:49;7.20;;;4.80;;
65009;SDS011;51556;50.002;22.014;2023-06-14T08:42:15;6.90;;;4.10;;
65009;SDS011;51556;50.002;22.014;2023-06-14T08:44:44;6.90;;;4.90;;
65009;SDS011;51556;50.002;22.014;2023-06-14T08:47:09;7.80;;;5.30;;
65009;SDS011;51556;50.002;22.014;2023-06-14T08:49:36;9.10;;;5.10;;
65009;SDS011;51556;50.002;22.014;2023-06-14T08:52:04;9.00;;;4.70;;
65009;SDS011;51556;50.002;22.014;2023-06-14T08:54:32;6.60;;;5.00;;
65009;SDS011;51556;50.002;22.014;2023-06-14T08:57:03;8.00;;;5.00;;
65009;SDS011;51556;50.002;22.014;2023-06-14T08:59:37;7.90;;;5.80;;
65009;SDS011;51556;50.002;22.014;2023-06-14T09:02:11;8.10;;;5.70;;
65009;SDS011;51556;50.002;22.014;2023-06-14T09:04:38;10.00;;;6.00;;
65009;SDS011;51556;50.002;22.014;2023-06-14T09:07:05;11.10;;;5.70;;
65009;SDS011;51556;50.002;22.014;2023-06-14T09:09:31;11.90;;;6.20;;
65009;SDS011;51556;50.002;22.014;2023-06-14T09:11:57;9.50;;;6.30;;
65009;SDS011;51556;50.002;22.014;2023-06-14T09:14:26;9.00;;;6.20;;
65009;SDS011;51556;50.002;22.014;2023-06-14T09:16:54;8.00;;;5.90;;
65009;SDS011;51556;50.002;22.014;2023-06-14T09:19:23;12.70;;;6.30;;
65009;SDS011;51556;50.002;22.014;2023-06-14T09:21:57;10.10;;;6.30;;
65009;SDS011;51556;50.002;22.014;2023-06-14T09:24:26;8.10;;;5.30;;
65009;SDS011;51556;50.002;22.014;2023-06-14T09:26:51;7.10;;;5.00;;
65009;SDS011;51556;50.002;22.014;2023-06-14T09:29:18;12.40;;;6.00;;
65009;SDS011;51556;50.002;22.014;2023-06-14T09:31:46;7.80;;;5.60;;
65009;SDS011;51556;50.002;22.014;2023-06-14T09:34:12;8.30;;;5.50;;
65009;SDS011;51556;50.002;22.014;2023-06-14T09:36:38;11.80;;;6.10;;
65009;SDS011;51556;50.002;22.014;2023-06-14T09:39:05;10.20;;;5.60;;
65009;SDS011;51556;50.002;22.014;2023-06-14T09:44:04;9.30;;;5.90;;
65009;SDS011;51556;50.002;22.014;2023-06-14T09:46:32;10.30;;;5.40;;
65009;SDS011;51556;50.002;22.014;2023-06-14T09:48:58;13.50;;;5.80;;
65009;SDS011;51556;50.002;22.014;2023-06-14T09:51:25;13.80;;;5.90;;
65009;SDS011;51556;50.002;22.014;2023-06-14T09:53:52;10.30;;;5.00;;
65009;SDS011;51556;50.002;22.014;2023-06-14T09:56:29;7.50;;;5.60;;
65009;SDS011;51556;50.002;22.014;2023-06-14T09:59:00;11.50;;;5.60;;
65009;SDS011;51556;50.002;22.014;2023-06-14T10:01:30;9.60;;;5.30;;
65009;SDS011;51556;50.002;22.014;2023-06-14T10:04:03;7.90;;;5.10;;
65009;SDS011;51556;50.002;22.014;2023-06-14T10:06:30;9.30;;;5.70;;
65009;SDS011;51556;50.002;22.014;2023-06-14T10:08:57;8.10;;;5.00;;
65009;SDS011;51556;50.002;22.014;2023-06-14T10:11:27;9.30;;;5.20;;
65009;SDS011;51556;50.002;22.014;2023-06-14T10:13:53;8.10;;;4.80;;
65009;SDS011;51556;50.002;22.014;2023-06-14T10:18:49;8.10;;;5.10;;
65009;SDS011;51556;50.002;22.014;2023-06-14T10:21:22;7.30;;;4.90;;
65009;SDS011;51556;50.002;22.014;2023-06-14T10:23:48;7.20;;;4.50;;
65009;SDS011;51556;50.002;22.014;2023-06-14T10:26:19;7.10;;;4.60;;
65009;SDS011;51556;50.002;22.014;2023-06-14T10:29:06;7.60;;;4.60;;
65009;SDS011;51556;50.002;22.014;2023-06-14T10:31:40;7.20;;;4.60;;
65009;SDS011;51556;50.002;22.014;2023-06-14T10:34:08;9.10;;;4.70;;
65009;SDS011;51556;50.002;22.014;2023-06-14T10:36:35;8.10;;;4.80;;
65009;SDS011;51556;50.002;22.014;2023-06-14T10:39:17;8.20;;;5.00;;
65009;SDS011;51556;50.002;22.014;2023-06-14T10:41:50;8.40;;;4.80;;
65009;SDS011;51556;50.002;22.014;2023-06-14T10:46:46;8.10;;;4.80;;
65009;SDS011;51556;50.002;22.014;2023-06-14T10:49:15;7.00;;;4.60;;
65009;SDS011;51556;50.002;22.014;2023-06-14T10:51:45;4.90;;;4.10;;
65009;SDS011;51556;50.002;22.014;2023-06-14T10:54:17;5.30;;;4.00;;
65009;SDS011;51556;50.002;22.014;2023-06-14T10:56:46;6.00;;;4.20;;
65009;SDS011;51556;50.002;22.014;2023-06-14T10:59:13;5.20;;;4.10;;
65009;SDS011;51556;50.002;22.014;2023-06-14T11:04:50;5.30;;;3.90;;
65009;SDS011;51556;50.002;22.014;2023-06-14T11:10:21;8.70;;;4.80;;
65009;SDS011;51556;50.002;22.014;2023-06-14T11:13:01;5.80;;;4.40;;
65009;SDS011;51556;50.002;22.014;2023-06-14T11:15:28;9.50;;;4.70;;
65009;SDS011;51556;50.002;22.014;2023-06-14T11:17:58;6.80;;;4.50;;
65009;SDS011;51556;50.002;22.014;2023-06-14T11:20:27;7.10;;;4.30;;
65009;SDS011;51556;50.002;22.014;2023-06-14T11:22:54;7.90;;;4.70;;
65009;SDS011;51556;50.002;22.014;2023-06-14T11:25:20;6.70;;;4.70;;
65009;SDS011;51556;50.002;22.014;2023-06-14T11:27:46;5.40;;;4.40;;
65009;SDS011;51556;50.002;22.014;2023-06-14T11:30:12;7.00;;;4.50;;
65009;SDS011;51556;50.002;22.014;2023-06-14T11:32:38;6.30;;;4.70;;
65009;SDS011;51556;50.002;22.014;2023-06-14T11:35:05;6.20;;;4.60;;
65009;SDS011;51556;50.002;22.014;2023-06-14T11:37:31;9.00;;;5.60;;
65009;SDS011;51556;50.002;22.014;2023-06-14T11:40:00;7.30;;;4.80;;
65009;SDS011;51556;50.002;22.014;2023-06-14T11:42:28;5.90;;;4.60;;
65009;SDS011;51556;50.002;22.014;2023-06-14T11:44:55;5.70;;;4.30;;
65009;SDS011;51556;50.002;22.014;2023-06-14T11:47:21;6.50;;;4.50;;
65009;SDS011;51556;50.002;22.014;2023-06-14T11:49:49;5.20;;;4.60;;
65009;SDS011;51556;50.002;22.014;2023-06-14T11:52:15;6.70;;;4.60;;
65009;SDS011;51556;50.002;22.014;2023-06-14T11:54:41;5.40;;;4.20;;
65009;SDS011;51556;50.002;22.014;2023-06-14T11:57:07;7.70;;;5.30;;
65009;SDS011;51556;50.002;22.014;2023-06-14T11:59:39;8.80;;;5.00;;
65009;SDS011;51556;50.002;22.014;2023-06-14T12:02:06;6.70;;;4.20;;
65009;SDS011;51556;50.002;22.014;2023-06-14T12:04:34;5.30;;;4.00;;
65009;SDS011;51556;50.002;22.014;2023-06-14T12:07:13;8.20;;;4.80;;
65009;SDS011;51556;50.002;22.014;2023-06-14T12:12:18;5.80;;;3.90;;
65009;SDS011;51556;50.002;22.014;2023-06-14T12:14:46;5.90;;;4.40;;
65009;SDS011;51556;50.002;22.014;2023-06-14T12:17:12;5.60;;;4.80;;
65009;SDS011;51556;50.002;22.014;2023-06-14T12:19:44;6.50;;;4.60;;
65009;SDS011;51556;50.002;22.014;2023-06-14T12:22:14;8.60;;;4.60;;
65009;SDS011;51556;50.002;22.014;2023-06-14T12:24:43;7.60;;;4.60;;
65009;SDS011;51556;50.002;22.014;2023-06-14T12:27:10;9.10;;;4.80;;
65009;SDS011;51556;50.002;22.014;2023-06-14T12:29:40;8.70;;;4.60;;
65009;SDS011;51556;50.002;22.014;2023-06-14T12:32:09;9.20;;;4.90;;
65009;SDS011;51556;50.002;22.014;2023-06-14T12:34:34;7.40;;;5.00;;
65009;SDS011;51556;50.002;22.014;2023-06-14T12:37:00;10.10;;;5.80;;
65009;SDS011;51556;50.002;22.014;2023-06-14T12:39:26;8.50;;;5.20;;
65009;SDS011;51556;50.002;22.014;2023-06-14T12:41:53;9.90;;;4.70;;
65009;SDS011;51556;50.002;22.014;2023-06-14T12:44:19;8.60;;;5.20;;
65009;SDS011;51556;50.002;22.014;2023-06-14T12:46:45;7.60;;;4.80;;
65009;SDS011;51556;50.002;22.014;2023-06-14T12:49:20;9.10;;;4.60;;
65009;SDS011;51556;50.002;22.014;2023-06-14T12:51:46;6.80;;;4.70;;
65009;SDS011;51556;50.002;22.014;2023-06-14T12:54:11;10.30;;;4.30;;
65009;SDS011;51556;50.002;22.014;2023-06-14T12:56:37;7.20;;;4.30;;
65009;SDS011;51556;50.002;22.014;2023-06-14T12:59:03;5.90;;;3.80;;
65009;SDS011;51556;50.002;22.014;2023-06-14T13:01:40;8.60;;;4.80;;
65009;SDS011;51556;50.002;22.014;2023-06-14T13:07:02;6.90;;;3.90;;
65009;SDS011;51556;50.002;22.014;2023-06-14T13:10:08;5.10;;;3.50;;
65009;SDS011;51556;50.002;22.014;2023-06-14T13:15:30;5.90;;;4.10;;
65009;SDS011;51556;50.002;22.014;2023-06-14T13:17:55;8.30;;;3.80;;
65009;SDS011;51556;50.002;22.014;2023-06-14T13:20:21;6.80;;;4.10;;
65009;SDS011;51556;50.002;22.014;2023-06-14T13:28:51;6.30;;;3.80;;
65009;SDS011;51556;50.002;22.014;2023-06-14T13:41:11;10.30;;;4.30;;
65009;SDS011;51556;50.002;22.014;2023-06-14T13:43:36;9.90;;;4.30;;
65009;SDS011;51556;50.002;22.014;2023-06-14T13:46:08;6.50;;;3.90;;
65009;SDS011;51556;50.002;22.014;2023-06-14T13:51:39;8.90;;;4.30;;
65009;SDS011;51556;50.002;22.014;2023-06-14T13:54:05;10.10;;;4.30;;
65009;SDS011;51556;50.002;22.014;2023-06-14T13:56:31;10.70;;;4.60;;
65009;SDS011;51556;50.002;22.014;2023-06-14T13:58:56;11.30;;;4.90;;
65009;SDS011;51556;50.002;22.014;2023-06-14T14:01:22;7.20;;;4.30;;
65009;SDS011;51556;50.002;22.014;2023-06-14T14:03:48;12.40;;;4.90;;
65009;SDS011;51556;50.002;22.014;2023-06-14T14:06:15;8.60;;;4.50;;
65009;SDS011;51556;50.002;22.014;2023-06-14T14:09:10;5.50;;;4.20;;
65009;SDS011;51556;50.002;22.014;2023-06-14T14:11:43;12.20;;;4.30;;
65009;SDS011;51556;50.002;22.014;2023-06-14T14:14:08;14.10;;;8.10;;
65009;SDS011;51556;50.002;22.014;2023-06-14T14:16:35;7.70;;;4.20;;
65009;SDS011;51556;50.002;22.014;2023-06-14T14:22:50;7.80;;;4.10;;
65009;SDS011;51556;50.002;22.014;2023-06-14T14:25:15;8.10;;;4.00;;
65009;SDS011;51556;50.002;22.014;2023-06-14T14:27:43;7.00;;;4.30;;
65009;SDS011;51556;50.002;22.014;2023-06-14T14:33:33;8.00;;;3.80;;
65009;SDS011;51556;50.002;22.014;2023-06-14T14:36:07;8.80;;;4.00;;
65009;SDS011;51556;50.002;22.014;2023-06-14T14:38:56;7.90;;;3.50;;
65009;SDS011;51556;50.002;22.014;2023-06-14T14:47:54;4.30;;;3.60;;
65009;SDS011;51556;50.002;22.014;2023-06-14T14:50:19;8.60;;;4.20;;
65009;SDS011;51556;50.002;22.014;2023-06-14T14:52:45;8.00;;;4.30;;
65009;SDS011;51556;50.002;22.014;2023-06-14T14:55:11;6.60;;;4.20;;
65009;SDS011;51556;50.002;22.014;2023-06-14T14:57:45;6.70;;;3.70;;
65009;SDS011;51556;50.002;22.014;2023-06-14T15:00:33;6.90;;;4.00;;
65009;SDS011;51556;50.002;22.014;2023-06-14T15:03:18;8.60;;;3.80;;
65009;SDS011;51556;50.002;22.014;2023-06-14T15:05:44;4.40;;;3.30;;
65009;SDS011;51556;50.002;22.014;2023-06-14T15:08:21;4.20;;;3.10;;
65009;SDS011;51556;50.002;22.014;2023-06-14T15:11:15;6.20;;;3.90;;
65009;SDS011;51556;50.002;22.014;2023-06-14T15:14:10;4.80;;;3.50;;
65009;SDS011;51556;50.002;22.014;2023-06-14T15:30:12;5.40;;;3.30;;
65009;SDS011;51556;50.002;22.014;2023-06-14T15:43:08;3.60;;;2.90;;
65009;SDS011;51556;50.002;22.014;2023-06-14T15:45:55;6.20;;;3.30;;
65009;SDS011;51556;50.002;22.014;2023-06-14T15:48:38;3.80;;;3.00;;
65009;SDS011;51556;50.002;22.014;2023-06-14T15:51:04;4.90;;;3.20;;
65009;SDS011;51556;50.002;22.014;2023-06-14T15:54:00;5.90;;;3.70;;
65009;SDS011;51556;50.002;22.014;2023-06-14T15:56:25;6.50;;;4.10;;
65009;SDS011;51556;50.002;22.014;2023-06-14T15:58:51;5.70;;;4.30;;
65009;SDS011;51556;50.002;22.014;2023-06-14T16:01:49;5.50;;;3.60;;